createdAt,value
2022-09-05T00:00:25.073Z,3.10
2022-09-05T00:02:59.108Z,2.92
2022-09-05T00:05:41.287Z,2.80
2022-09-05T00:08:27.515Z,2.92
2022-09-05T00:11:22.335Z,3.20
2022-09-05T00:13:55.217Z,2.65
2022-09-05T00:16:32.800Z,3.10
2022-09-05T00:22:52.688Z,3.10
2022-09-05T00:24:28.183Z,3.25
2022-09-05T00:25:21.195Z,3.17
2022-09-05T00:27:51.574Z,3.08
2022-09-05T00:31:06.158Z,2.80
2022-09-05T00:33:19.255Z,3.03
2022-09-05T00:35:54.958Z,3.05
2022-09-05T00:38:25.932Z,3.10
2022-09-05T00:41:02.221Z,3.15
2022-09-05T00:43:32.819Z,3.30
2022-09-05T00:46:04.181Z,3.15
2022-09-05T00:48:36.502Z,4.35
2022-09-05T00:51:09.700Z,3.40
2022-09-05T00:53:41.074Z,3.30
2022-09-05T00:56:17.792Z,3.17
2022-09-05T00:59:03.254Z,3.20
2022-09-05T01:01:39.024Z,3.17
2022-09-05T01:04:18.016Z,3.40
2022-09-05T01:06:59.584Z,3.13
2022-09-05T01:09:37.177Z,2.97
2022-09-05T01:12:11.542Z,3.40
2022-09-05T01:14:53.463Z,3.47
2022-09-05T01:17:32.177Z,3.22
2022-09-05T01:20:18.958Z,2.80
2022-09-05T01:23:16.682Z,3.90
2022-09-05T01:25:55.292Z,3.30
2022-09-05T01:29:17.836Z,3.35
2022-09-05T01:31:16.447Z,3.50
2022-09-05T01:33:48.818Z,3.90
2022-09-05T01:36:38.050Z,3.90
2022-09-05T01:40:10.546Z,4.28
2022-09-05T01:42:00.849Z,3.88
2022-09-05T01:44:41.195Z,3.83
2022-09-05T01:47:28.447Z,4.75
2022-09-05T01:50:02.623Z,4.20
2022-09-05T01:52:58.614Z,3.72
2022-09-05T01:55:34.919Z,3.65
2022-09-05T01:58:26.219Z,3.50
2022-09-05T02:00:58.392Z,4.50
2022-09-05T02:03:50.285Z,4.00
2022-09-05T02:06:28.223Z,4.22
2022-09-05T02:09:11.388Z,4.03
2022-09-05T02:11:45.948Z,3.90
2022-09-05T02:14:33.822Z,3.83
2022-09-05T02:17:31.918Z,3.92
2022-09-05T02:20:03.858Z,4.22
2022-09-05T02:22:40.750Z,4.68
2022-09-05T02:26:00.491Z,4.30
2022-09-05T02:28:04.966Z,5.40
2022-09-05T02:30:37.264Z,5.45
2022-09-05T02:33:22.540Z,5.60
2022-09-05T02:35:54.550Z,5.40
2022-09-05T02:41:17.221Z,5.50
2022-09-05T02:45:06.738Z,5.32
2022-09-05T02:45:20.465Z,5.60
2022-09-05T02:47:02.241Z,5.55
2022-09-05T02:53:59.224Z,5.25
2022-09-05T02:57:28.593Z,5.35
2022-09-05T02:57:46.689Z,5.10
2022-09-05T02:58:24.929Z,5.53
2022-09-05T03:00:57.595Z,5.03
2022-09-05T03:03:30.811Z,5.03
2022-09-05T03:06:02.122Z,5.85
2022-09-05T03:08:42.506Z,6.10
2022-09-05T03:11:29.481Z,5.30
2022-09-05T03:14:12.578Z,5.30
2022-09-05T03:16:55.780Z,5.28
2022-09-05T03:19:46.081Z,5.28
2022-09-05T03:22:48.923Z,5.57
2022-09-05T03:25:35.197Z,6.40
2022-09-05T03:28:21.131Z,5.40
2022-09-05T03:30:57.436Z,6.00
2022-09-05T03:33:44.836Z,6.00
2022-09-05T03:36:29.162Z,5.90
2022-09-05T03:39:21.167Z,7.00
2022-09-05T03:42:05.009Z,6.32
2022-09-05T03:44:50.519Z,6.18
2022-09-05T03:47:41.842Z,6.15
2022-09-05T03:56:58.255Z,6.18
2022-09-05T03:57:22.794Z,6.45
2022-09-05T03:57:23.701Z,6.60
2022-09-05T03:59:38.409Z,7.15
2022-09-05T04:03:55.410Z,6.10
2022-09-05T04:08:07.524Z,5.72
2022-09-05T04:08:19.033Z,6.93
2022-09-05T04:10:46.071Z,6.28
2022-09-05T04:13:19.138Z,6.15
2022-09-05T04:15:54.622Z,7.05
2022-09-05T04:18:32.714Z,6.75
2022-09-05T04:21:04.161Z,6.30
2022-09-05T04:23:36.235Z,6.38
2022-09-05T04:26:11.349Z,7.82
2022-09-05T04:28:53.312Z,5.95
2022-09-05T04:31:30.643Z,6.40
2022-09-05T04:34:04.056Z,6.93
2022-09-05T04:36:34.439Z,6.68
2022-09-05T04:39:10.682Z,6.78
2022-09-05T04:41:42.272Z,6.50
2022-09-05T04:44:14.862Z,7.07
2022-09-05T04:46:48.318Z,6.90
2022-09-05T04:49:18.813Z,6.63
2022-09-05T04:52:07.209Z,6.65
2022-09-05T04:54:39.261Z,6.80
2022-09-05T04:57:14.876Z,7.10
2022-09-05T05:05:48.750Z,7.13
2022-09-05T05:06:16.278Z,6.28
2022-09-05T05:06:18.704Z,7.20
2022-09-05T05:08:38.510Z,6.63
2022-09-05T05:16:09.230Z,6.63
2022-09-05T05:18:01.974Z,6.93
2022-09-05T05:18:09.597Z,6.30
2022-09-05T05:19:48.920Z,6.43
2022-09-05T05:22:35.274Z,6.80
2022-09-05T05:25:04.241Z,6.20
2022-09-05T05:27:35.658Z,6.90
2022-09-05T05:30:05.469Z,7.00
2022-09-05T05:32:46.380Z,6.93
2022-09-05T05:35:17.730Z,6.80
2022-09-05T05:37:47.422Z,6.38
2022-09-05T05:40:21.437Z,5.88
2022-09-05T05:42:49.850Z,7.03
2022-09-05T05:45:19.733Z,6.18
2022-09-05T05:47:50.536Z,6.38
2022-09-05T05:50:28.554Z,6.70
2022-09-05T05:53:07.842Z,6.65
2022-09-05T05:55:57.182Z,5.95
2022-09-05T05:58:43.462Z,6.68
2022-09-05T06:01:37.617Z,6.47
2022-09-05T06:04:16.617Z,6.38
2022-09-05T06:06:56.579Z,6.65
2022-09-05T06:14:55.724Z,6.97
2022-09-05T06:15:02.366Z,6.95
2022-09-05T06:15:54.699Z,6.97
2022-09-05T06:18:33.440Z,6.77
2022-09-05T06:22:10.169Z,6.70
2022-09-05T06:24:34.722Z,7.22
2022-09-05T06:27:35.934Z,7.38
2022-09-05T06:30:15.684Z,6.73
2022-09-05T06:33:04.507Z,7.32
2022-09-05T06:35:35.199Z,7.20
2022-09-05T06:38:09.960Z,6.80
2022-09-05T06:40:44.733Z,8.30
2022-09-05T06:43:24.363Z,7.07
2022-09-05T06:46:03.338Z,6.82
2022-09-05T06:48:45.695Z,7.25
2022-09-05T06:51:34.602Z,6.35
2022-09-05T06:54:11.791Z,6.88
2022-09-05T06:56:48.837Z,7.60
2022-09-05T06:59:40.549Z,7.20
2022-09-05T07:02:15.482Z,6.93
2022-09-05T07:05:38.524Z,5.13
2022-09-05T07:08:26.724Z,6.00
2022-09-05T07:11:11.485Z,5.63
2022-09-05T07:13:49.980Z,6.20
2022-09-05T07:16:26.690Z,6.15
2022-09-05T07:19:15.758Z,6.70
2022-09-05T07:21:47.424Z,6.10
2022-09-05T07:24:53.233Z,6.22
2022-09-05T07:27:12.686Z,6.32
2022-09-05T07:29:55.946Z,5.45
2022-09-05T07:32:30.751Z,6.32
2022-09-05T07:35:01.999Z,6.53
2022-09-05T07:37:35.778Z,6.03
2022-09-05T07:40:24.689Z,6.00
2022-09-05T07:43:09.463Z,5.75
2022-09-05T07:45:41.840Z,6.40
2022-09-05T07:48:22.515Z,5.43
2022-09-05T07:56:52.882Z,6.32
2022-09-05T07:56:56.795Z,5.97
2022-09-05T07:57:09.947Z,5.80
2022-09-05T07:59:35.724Z,5.97
2022-09-05T08:02:05.056Z,5.40
2022-09-05T08:04:34.066Z,6.00
2022-09-05T08:07:46.773Z,5.30
2022-09-05T08:10:09.434Z,5.95
2022-09-05T08:13:22.308Z,5.45
2022-09-05T08:16:00.624Z,6.05
2022-09-05T08:18:19.129Z,5.78
2022-09-05T08:20:49.804Z,5.70
2022-09-05T08:23:25.864Z,5.85
2022-09-05T08:25:59.687Z,5.53
2022-09-05T08:28:39.163Z,5.03
2022-09-05T08:31:10.279Z,4.43
2022-09-05T08:33:38.997Z,5.53
2022-09-05T08:36:11.031Z,4.50
2022-09-05T08:38:43.296Z,4.53
2022-09-05T08:41:16.617Z,4.32
2022-09-05T08:46:39.917Z,4.72
2022-09-05T08:46:50.186Z,4.03
2022-09-05T08:49:37.823Z,3.88
2022-09-05T08:52:10.729Z,4.22
2022-09-05T08:54:47.575Z,4.55
2022-09-05T08:57:19.736Z,4.03
2022-09-05T09:00:19.336Z,3.63
2022-09-05T09:02:56.292Z,3.45
2022-09-05T09:06:12.944Z,4.18
2022-09-05T09:08:42.585Z,3.25
2022-09-05T09:11:14.766Z,3.10
2022-09-05T09:13:52.372Z,3.63
2022-09-05T09:16:30.494Z,3.30
2022-09-05T09:19:08.820Z,3.30
2022-09-05T09:21:42.264Z,2.65
2022-09-05T09:24:19.023Z,2.67
2022-09-05T09:26:54.401Z,2.72
2022-09-05T09:29:23.620Z,2.65
2022-09-05T09:32:00.857Z,2.92
2022-09-05T09:34:47.212Z,2.67
2022-09-05T09:37:50.415Z,2.25
2022-09-05T09:40:35.185Z,2.65
2022-09-05T09:43:08.319Z,2.60
2022-09-05T09:45:51.300Z,2.50
2022-09-05T09:48:34.428Z,2.40
2022-09-05T09:51:18.748Z,3.28
2022-09-05T09:53:52.545Z,2.28
2022-09-05T09:56:29.134Z,2.58
2022-09-05T09:59:15.366Z,2.40
2022-09-05T10:01:53.493Z,2.47
2022-09-05T10:10:35.163Z,2.33
2022-09-05T10:10:49.906Z,2.33
2022-09-05T10:11:07.880Z,2.30
2022-09-05T10:13:38.346Z,2.40
2022-09-05T10:16:23.044Z,2.33
2022-09-05T10:19:16.918Z,2.40
2022-09-05T10:25:11.282Z,1.98
2022-09-05T10:28:04.513Z,1.83
2022-09-05T10:32:25.986Z,2.08
2022-09-05T10:35:23.284Z,1.98
2022-09-05T10:36:28.937Z,1.80
2022-09-05T10:39:05.352Z,1.35
2022-09-05T10:41:39.405Z,1.60
2022-09-05T10:44:09.769Z,1.70
2022-09-05T10:46:53.059Z,1.80
2022-09-05T10:49:24.485Z,1.60
2022-09-05T10:52:07.018Z,2.00
2022-09-05T10:55:13.772Z,1.90
2022-09-05T10:57:50.399Z,2.08
2022-09-05T11:02:21.332Z,2.20
2022-09-05T11:03:23.803Z,1.90
2022-09-05T11:05:54.840Z,2.20
2022-09-05T11:08:28.010Z,1.90
2022-09-05T11:11:03.197Z,1.85
2022-09-05T11:13:40.255Z,1.75
2022-09-05T11:16:13.606Z,2.03
2022-09-05T11:18:56.108Z,1.98
2022-09-05T11:21:27.368Z,2.00
2022-09-05T11:23:58.363Z,1.80
2022-09-05T11:26:39.475Z,1.80
2022-09-05T11:29:09.759Z,1.80
2022-09-05T11:32:19.121Z,2.20
2022-09-05T11:39:48.594Z,2.00
2022-09-05T11:40:05.509Z,2.28
2022-09-05T11:41:05.314Z,1.90
2022-09-05T11:43:50.221Z,1.92
2022-09-05T11:46:24.487Z,1.60
2022-09-05T11:49:08.379Z,1.90
2022-09-05T11:52:06.834Z,1.80
2022-09-05T11:54:54.253Z,2.60
2022-09-05T11:57:36.049Z,2.33
2022-09-05T12:00:33.278Z,1.98
2022-09-05T12:03:44.430Z,1.90
2022-09-05T12:06:16.617Z,1.95
2022-09-05T12:08:50.363Z,1.90
2022-09-05T12:11:25.634Z,1.90
2022-09-05T12:14:20.979Z,1.67
2022-09-05T12:16:55.253Z,1.90
2022-09-05T12:19:27.849Z,2.20
2022-09-05T12:22:08.861Z,2.13
2022-09-05T12:27:46.334Z,1.40
2022-09-05T12:30:23.234Z,1.45
2022-09-05T12:36:01.834Z,1.38
2022-09-05T12:36:05.373Z,1.23
2022-09-05T12:40:55.542Z,1.25
2022-09-05T12:42:08.264Z,1.40
2022-09-05T12:42:08.441Z,1.63
2022-09-05T12:44:41.270Z,1.48
2022-09-05T12:47:18.961Z,1.30
2022-09-05T12:50:02.599Z,1.27
2022-09-05T12:52:44.174Z,2.70
2022-09-05T12:55:13.577Z,1.40
2022-09-05T13:00:18.731Z,1.50
2022-09-05T13:03:03.808Z,1.25
2022-09-05T13:03:33.693Z,1.10
2022-09-05T13:06:06.419Z,1.42
2022-09-05T13:08:44.055Z,1.50
2022-09-05T13:14:49.208Z,1.15
2022-09-05T13:15:02.405Z,1.33
2022-09-05T13:16:55.701Z,1.40
2022-09-05T13:19:29.588Z,1.65
2022-09-05T13:21:58.404Z,1.10
2022-09-05T13:24:30.682Z,1.50
2022-09-05T13:27:03.423Z,1.40
2022-09-05T13:31:18.252Z,1.38
2022-09-05T13:37:56.117Z,1.38
2022-09-05T13:38:14.031Z,1.45
2022-09-05T13:38:48.406Z,1.55
2022-09-05T13:41:27.306Z,1.10
2022-09-05T13:44:25.112Z,1.30
2022-09-05T13:46:57.871Z,1.63
2022-09-05T13:49:31.254Z,1.35
2022-09-05T13:52:08.335Z,1.60
2022-09-05T13:54:40.029Z,1.52
2022-09-05T13:57:31.785Z,1.48
2022-09-05T14:00:27.959Z,1.48
2022-09-05T14:03:39.077Z,1.50
2022-09-05T14:06:45.171Z,1.50
2022-09-05T14:11:58.727Z,1.60
2022-09-05T14:20:37.591Z,1.55
2022-09-05T14:23:08.039Z,1.70
2022-09-05T14:25:40.136Z,1.48
2022-09-05T14:28:11.867Z,1.38
2022-09-05T14:32:32.595Z,1.60
2022-09-05T14:37:46.540Z,1.52
2022-09-05T14:38:00.023Z,1.50
2022-09-05T14:39:29.973Z,1.65
2022-09-05T14:42:13.196Z,1.40
2022-09-05T14:45:10.092Z,1.40
2022-09-05T14:47:47.477Z,1.27
2022-09-05T14:50:29.257Z,1.88
2022-09-05T14:57:15.201Z,1.70
2022-09-05T15:02:48.939Z,1.40
2022-09-05T15:02:54.234Z,1.60
2022-09-05T15:04:51.556Z,1.48
2022-09-05T15:07:21.691Z,1.70
2022-09-05T15:12:18.427Z,1.95
2022-09-05T15:12:59.505Z,1.50
2022-09-05T15:15:31.862Z,1.63
2022-09-05T15:18:01.976Z,1.80
2022-09-05T15:20:32.212Z,1.70
2022-09-05T15:23:16.495Z,1.85
2022-09-05T15:25:47.112Z,1.88
2022-09-05T15:28:20.081Z,1.52
2022-09-05T15:30:58.802Z,1.90
2022-09-05T15:33:29.480Z,1.58
2022-09-05T15:35:58.332Z,1.60
2022-09-05T15:38:31.581Z,1.73
2022-09-05T15:41:09.391Z,1.90
2022-09-05T15:43:40.069Z,1.77
2022-09-05T15:46:09.841Z,1.85
2022-09-05T15:48:40.839Z,1.80
2022-09-05T15:51:17.271Z,1.80
2022-09-05T15:53:45.899Z,1.70
2022-09-05T15:56:19.531Z,1.65
2022-09-05T15:58:53.519Z,1.67
2022-09-05T16:01:38.438Z,1.85
2022-09-05T16:09:59.832Z,1.45
2022-09-05T16:10:38.655Z,1.60
2022-09-05T16:10:39.107Z,1.50
2022-09-05T16:12:47.130Z,1.60
2022-09-05T16:19:25.028Z,1.48
2022-09-05T16:23:28.691Z,1.45
2022-09-05T16:23:29.340Z,1.67
2022-09-05T16:23:57.014Z,1.60
2022-09-05T16:26:30.237Z,1.63
2022-09-05T16:29:00.498Z,1.60
2022-09-05T16:31:36.252Z,2.10
2022-09-05T16:34:10.341Z,1.60
2022-09-05T16:36:44.457Z,1.58
2022-09-05T16:39:19.125Z,1.75
2022-09-05T16:41:48.990Z,1.40
2022-09-05T16:44:22.961Z,1.58
2022-09-05T16:47:03.963Z,1.70
2022-09-05T16:49:42.320Z,1.55
2022-09-05T16:52:17.290Z,1.40
2022-09-05T16:54:48.661Z,1.83
2022-09-05T16:57:19.421Z,1.67
2022-09-05T16:59:48.261Z,1.88
2022-09-05T17:02:25.270Z,1.50
2022-09-05T17:05:06.051Z,1.67
2022-09-05T17:07:42.206Z,1.52
2022-09-05T17:10:11.831Z,1.50
2022-09-05T17:12:41.226Z,1.52
2022-09-05T17:15:11.854Z,1.88
2022-09-05T17:18:22.778Z,1.90
2022-09-05T17:20:41.939Z,1.92
2022-09-05T17:29:15.721Z,2.00
2022-09-05T17:29:37.957Z,1.70
2022-09-05T17:30:32.192Z,2.05
2022-09-05T17:31:58.393Z,1.90
2022-09-05T17:34:39.480Z,1.80
2022-09-05T17:37:19.766Z,2.15
2022-09-05T17:39:53.838Z,2.10
2022-09-05T17:42:31.279Z,3.60
2022-09-05T17:45:08.047Z,3.60
2022-09-05T17:47:45.706Z,2.40
2022-09-05T17:50:16.329Z,3.20
2022-09-05T17:53:26.225Z,3.83
2022-09-05T17:56:22.724Z,3.22
2022-09-05T17:59:05.239Z,2.60
2022-09-05T18:01:34.792Z,2.88
2022-09-05T18:04:17.024Z,3.10
2022-09-05T18:06:59.625Z,2.70
2022-09-05T18:09:48.829Z,2.50
2022-09-05T18:13:12.600Z,2.80
2022-09-05T18:15:22.594Z,2.70
2022-09-05T18:18:01.823Z,2.90
2022-09-05T18:20:40.510Z,2.45
2022-09-05T18:23:26.338Z,2.63
2022-09-05T18:26:04.350Z,2.45
2022-09-05T18:28:52.600Z,2.10
2022-09-05T18:31:42.526Z,2.17
2022-09-05T18:34:31.860Z,3.30
2022-09-05T18:37:00.600Z,2.47
2022-09-05T18:39:44.707Z,2.63
2022-09-05T18:42:33.450Z,2.38
2022-09-05T18:45:15.142Z,2.50
2022-09-05T18:47:53.230Z,2.45
2022-09-05T18:50:28.428Z,2.33
2022-09-05T18:53:09.654Z,2.35
2022-09-05T18:56:12.253Z,2.53
2022-09-05T18:58:31.816Z,2.97
2022-09-05T19:01:18.709Z,2.20
2022-09-05T19:03:52.355Z,2.53
2022-09-05T19:06:37.050Z,2.90
2022-09-05T19:09:08.714Z,3.38
2022-09-05T19:11:52.737Z,3.80
2022-09-05T19:14:29.725Z,2.70
2022-09-05T19:17:03.308Z,2.70
2022-09-05T19:20:08.481Z,2.33
2022-09-05T19:23:11.144Z,2.38
2022-09-05T19:25:33.831Z,2.40
2022-09-05T19:33:56.762Z,2.70
2022-09-05T19:36:47.436Z,2.30
2022-09-05T19:37:13.092Z,2.30
2022-09-05T19:37:23.714Z,2.30
2022-09-05T19:44:28.187Z,2.25
2022-09-05T19:47:29.718Z,2.22
2022-09-05T19:47:57.715Z,1.98
2022-09-05T19:48:07.741Z,2.50
2022-09-05T19:50:38.024Z,2.42
2022-09-05T19:53:07.377Z,1.90
2022-09-05T19:55:37.618Z,2.00
2022-09-05T19:58:29.032Z,2.22
2022-09-05T20:01:05.686Z,1.95
2022-09-05T20:03:42.069Z,2.58
2022-09-05T20:06:29.932Z,2.58
2022-09-05T20:09:13.775Z,2.20
2022-09-05T20:14:26.674Z,2.50
2022-09-05T20:16:57.185Z,2.40
2022-09-05T20:19:32.274Z,2.50
2022-09-05T20:22:10.242Z,2.80
2022-09-05T20:24:52.015Z,2.42
2022-09-05T20:27:27.006Z,2.90
2022-09-05T20:29:59.726Z,2.42
2022-09-05T20:32:39.795Z,3.03
2022-09-05T20:38:26.327Z,2.85
2022-09-05T20:43:12.429Z,2.80
2022-09-05T20:43:20.172Z,2.72
2022-09-05T20:43:54.571Z,2.67
2022-09-05T20:52:38.080Z,2.78
2022-09-05T20:54:16.805Z,3.20
2022-09-05T20:54:23.020Z,3.30
2022-09-05T20:55:37.880Z,3.00
2022-09-05T20:57:53.844Z,3.10
2022-09-05T21:00:28.356Z,3.00
2022-09-05T21:02:58.631Z,3.00
2022-09-05T21:05:31.397Z,3.22
2022-09-05T21:08:16.686Z,2.90
2022-09-05T21:10:55.990Z,3.20
2022-09-05T21:13:27.002Z,2.72
2022-09-05T21:15:55.664Z,3.08
2022-09-05T21:18:33.386Z,3.17
2022-09-05T21:21:28.960Z,3.00
2022-09-05T21:24:16.324Z,3.20
2022-09-05T21:26:49.174Z,3.35
2022-09-05T21:29:18.296Z,3.47
2022-09-05T21:31:48.320Z,3.33
2022-09-05T21:34:27.535Z,3.30
2022-09-05T21:37:07.082Z,3.47
2022-09-05T21:39:38.320Z,3.47
2022-09-05T21:44:10.514Z,3.13
2022-09-05T21:47:50.094Z,3.63
2022-09-05T21:47:53.104Z,3.20
2022-09-05T21:50:30.629Z,3.10
2022-09-05T21:53:31.168Z,2.90
2022-09-05T21:59:27.447Z,3.65
2022-09-05T21:59:33.586Z,3.72
2022-09-05T22:01:48.704Z,3.35
2022-09-05T22:04:22.085Z,2.90
2022-09-05T22:06:53.005Z,3.28
2022-09-05T22:09:25.019Z,3.50
2022-09-05T22:11:53.833Z,3.65
2022-09-05T22:14:24.817Z,3.40
2022-09-05T22:16:54.884Z,3.20
2022-09-05T22:19:26.213Z,3.08
2022-09-05T22:22:07.720Z,3.20
2022-09-05T22:24:37.052Z,3.03
2022-09-05T22:27:12.416Z,3.50
2022-09-05T22:29:47.344Z,3.42
2022-09-05T22:32:18.964Z,3.22
2022-09-05T22:35:27.641Z,3.40
2022-09-05T22:37:58.728Z,3.30
2022-09-05T22:40:28.179Z,3.50
2022-09-05T22:42:56.934Z,3.60
2022-09-05T22:45:26.693Z,3.47
2022-09-05T22:47:55.286Z,3.20
2022-09-05T22:50:23.636Z,3.40
2022-09-05T22:52:52.130Z,3.45
2022-09-05T22:55:20.461Z,4.93
2022-09-05T22:57:48.787Z,3.15
2022-09-05T23:00:17.113Z,3.30
2022-09-05T23:02:51.671Z,3.33
2022-09-05T23:05:20.935Z,3.03
2022-09-05T23:07:49.247Z,3.47
2022-09-05T23:10:17.723Z,3.03
2022-09-05T23:12:46.369Z,2.80
2022-09-05T23:15:15.205Z,3.25
2022-09-05T23:17:43.518Z,3.25
2022-09-05T23:20:13.406Z,3.20
2022-09-05T23:22:43.040Z,3.35
2022-09-05T23:25:11.729Z,3.03
2022-09-05T23:27:40.278Z,3.10
2022-09-05T23:30:09.586Z,3.00
2022-09-05T23:32:37.882Z,3.00
2022-09-05T23:35:06.449Z,3.20
2022-09-05T23:37:36.226Z,3.03
2022-09-05T23:40:04.938Z,3.15
2022-09-05T23:42:33.306Z,3.55
2022-09-05T23:45:01.589Z,3.28
2022-09-05T23:47:30.908Z,3.00
2022-09-05T23:50:16.582Z,2.90
2022-09-05T23:52:46.793Z,2.95
2022-09-05T23:55:16.747Z,3.22
2022-09-05T23:57:45.517Z,3.40
